Time;durP1;ratioP1;P1;durP2;ratioP2;P2;SDS_P1;SDS_P2;PMS_P1;PMS_P2;Temp;Humidity;BMP_temperature;BMP_pressure;BME280_temperature;BME280_humidity;BME280_pressure;Samples;Min_cycle;Max_cycle;Signal;HPM_P1;HPM_P2
2021/01/04 00:04:12;;;;;;;5.10;4.30;;;20.00;29.50;;;;;;8327986;28;20536;-59
2021/01/04 00:08:34;;;;;;;7.03;4.35;;;20.00;29.50;;;;;;8323817;28;20034;-59
2021/01/04 00:12:39;;;;;;;5.82;4.10;;;20.00;29.50;;;;;;8344006;28;20041;-58
2021/01/04 00:16:55;;;;;;;5.90;4.32;;;19.90;29.50;;;;;;8323461;28;20069;-59
2021/01/04 00:21:00;;;;;;;5.28;4.40;;;19.90;29.40;;;;;;8324331;28;20045;-60
2021/01/04 00:25:07;;;;;;;5.78;4.40;;;19.90;29.40;;;;;;8349413;28;20033;-59
2021/01/04 00:29:08;;;;;;;5.03;4.03;;;19.90;29.40;;;;;;8338814;28;20068;-59
2021/01/04 00:33:26;;;;;;;6.43;4.10;;;19.90;29.50;;;;;;8352198;28;20041;-59
2021/01/04 00:37:58;;;;;;;8.25;4.65;;;19.90;29.40;;;;;;8329278;28;20034;-59
2021/01/04 00:42:02;;;;;;;7.10;4.78;;;19.90;29.50;;;;;;8327487;28;20044;-59
2021/01/04 00:46:03;;;;;;;6.50;4.70;;;19.90;29.40;;;;;;8348505;28;20033;-59
2021/01/04 00:50:36;;;;;;;5.72;4.40;;;19.80;29.40;;;;;;8338550;28;20501;-59
2021/01/04 00:54:52;;;;;;;4.63;4.18;;;19.80;29.40;;;;;;8327362;28;20092;-60
2021/01/04 00:59:12;;;;;;;5.95;4.55;;;19.80;29.40;;;;;;8328501;28;20060;-59
2021/01/04 01:03:38;;;;;;;5.93;4.47;;;19.80;29.40;;;;;;8326975;28;20048;-59
2021/01/04 01:07:57;;;;;;;6.43;4.70;;;19.80;29.50;;;;;;8328357;28;20033;-59
2021/01/04 01:12:19;;;;;;;5.70;4.47;;;19.80;29.40;;;;;;8337101;28;20132;-59
2021/01/04 01:16:34;;;;;;;5.53;4.63;;;19.80;29.40;;;;;;8346542;28;20056;-59
2021/01/04 01:20:40;;;;;;;5.90;4.45;;;19.80;29.40;;;;;;8329389;28;20451;-58
2021/01/04 01:24:42;;;;;;;5.65;4.57;;;19.80;29.40;;;;;;8348773;28;20087;-59
2021/01/04 01:28:46;;;;;;;4.97;4.25;;;19.80;29.40;;;;;;8327680;28;20041;-59
2021/01/04 01:32:56;;;;;;;5.43;4.63;;;19.80;29.40;;;;;;8329944;28;20056;-60
2021/01/04 01:37:34;;;;;;;5.65;4.30;;;19.70;29.40;;;;;;8327271;28;20140;-59
2021/01/04 01:42:07;;;;;;;5.43;4.55;;;19.70;29.40;;;;;;8325303;28;20083;-58
2021/01/04 01:46:21;;;;;;;6.20;4.30;;;19.70;29.40;;;;;;8327827;28;20029;-60
2021/01/04 01:50:30;;;;;;;6.50;4.68;;;19.60;29.40;;;;;;8326285;28;20068;-59
2021/01/04 01:54:34;;;;;;;6.40;4.85;;;19.60;29.40;;;;;;8325883;28;20040;-60
2021/01/04 01:58:56;;;;;;;5.88;4.57;;;19.60;29.50;;;;;;8331286;28;20060;-61
2021/01/04 02:03:09;;;;;;;5.90;4.10;;;19.50;29.50;;;;;;8349317;28;20052;-61
2021/01/04 02:07:30;;;;;;;6.25;4.57;;;19.50;29.50;;;;;;8324660;28;20045;-60
2021/01/04 02:11:50;;;;;;;5.93;4.60;;;19.50;29.50;;;;;;8308730;28;20088;-61
2021/01/04 02:15:57;;;;;;;5.22;4.47;;;19.50;29.60;;;;;;8357641;28;20136;-61
2021/01/04 02:20:16;;;;;;;5.75;4.82;;;19.40;29.60;;;;;;8326918;28;20516;-59
2021/01/04 02:24:25;;;;;;;5.63;4.25;;;19.40;29.60;;;;;;8296431;28;20164;-61
2021/01/04 02:28:30;;;;;;;7.28;5.00;;;19.40;29.60;;;;;;8320811;28;20034;-60
2021/01/04 02:32:31;;;;;;;4.50;4.07;;;19.30;29.60;;;;;;8323994;28;20025;-61
2021/01/04 02:36:37;;;;;;;5.20;4.50;;;19.30;29.60;;;;;;8325370;28;20521;-61
2021/01/04 02:40:37;;;;;;;5.40;4.40;;;19.30;29.60;;;;;;8330084;28;20037;-61
2021/01/04 02:44:39;;;;;;;5.73;4.57;;;19.30;29.60;;;;;;8347264;28;20105;-61
2021/01/04 02:48:59;;;;;;;7.40;4.70;;;19.30;29.60;;;;;;8325410;28;20482;-61
2021/01/04 02:53:02;;;;;;;5.80;4.38;;;19.20;29.60;;;;;;8348190;28;20163;-60
2021/01/04 02:57:13;;;;;;;8.02;4.60;;;19.20;29.60;;;;;;8324685;28;20038;-61
2021/01/04 03:01:19;;;;;;;5.32;4.03;;;19.20;29.60;;;;;;8345948;28;20045;-61
2021/01/04 03:05:22;;;;;;;5.45;4.13;;;19.10;29.60;;;;;;8355231;28;20534;-60
2021/01/04 03:09:27;;;;;;;5.88;4.85;;;19.10;29.60;;;;;;8325035;28;20026;-60
2021/01/04 03:13:43;;;;;;;6.20;4.28;;;19.10;29.60;;;;;;8324679;28;20025;-61
2021/01/04 03:18:14;;;;;;;5.65;4.18;;;19.10;29.60;;;;;;8322787;28;20045;-60
2021/01/04 03:22:15;;;;;;;5.20;3.90;;;19.10;29.60;;;;;;8329148;28;20119;-59
2021/01/04 03:26:25;;;;;;;6.05;4.38;;;19.10;29.70;;;;;;8322819;28;20080;-60
2021/01/04 03:30:28;;;;;;;5.20;4.10;;;19.00;29.60;;;;;;8334210;28;20033;-61
2021/01/04 03:34:28;;;;;;;5.82;4.20;;;19.00;29.70;;;;;;8356878;28;20560;-61
2021/01/04 03:38:31;;;;;;;6.03;4.40;;;19.00;29.70;;;;;;8329081;28;20030;-60
2021/01/04 03:42:32;;;;;;;6.15;4.63;;;19.00;29.70;;;;;;8328835;28;20041;-60
2021/01/04 03:46:33;;;;;;;6.07;4.40;;;19.00;29.70;;;;;;8343210;28;20033;-59
2021/01/04 03:50:33;;;;;;;5.03;4.27;;;18.90;29.60;;;;;;8327402;28;20072;-58
2021/01/04 03:54:34;;;;;;;7.80;5.10;;;18.90;29.70;;;;;;8335155;28;20087;-59
2021/01/04 03:58:34;;;;;;;6.53;4.30;;;18.90;29.70;;;;;;8367889;28;20025;-57
2021/01/04 04:02:35;;;;;;;5.70;3.70;;;18.90;29.70;;;;;;8358992;28;20426;-58
2021/01/04 04:06:35;;;;;;;5.30;4.13;;;18.90;29.60;;;;;;8330174;28;20045;-58
2021/01/04 04:10:36;;;;;;;5.77;4.37;;;18.80;29.60;;;;;;8329998;28;20040;-58
2021/01/04 04:14:36;;;;;;;5.97;4.20;;;18.90;29.70;;;;;;8328595;28;20046;-58
2021/01/04 04:18:37;;;;;;;6.40;4.60;;;18.90;29.70;;;;;;8334374;28;20397;-58
2021/01/04 04:22:38;;;;;;;5.18;4.28;;;18.80;29.60;;;;;;8329565;28;20080;-58
2021/01/04 04:26:39;;;;;;;5.10;3.80;;;18.90;29.60;;;;;;8328078;28;20091;-58
2021/01/04 04:30:39;;;;;;;5.73;4.53;;;19.00;29.60;;;;;;8329661;28;20025;-59
2021/01/04 04:34:40;;;;;;;6.17;4.23;;;19.00;29.60;;;;;;8333498;28;20586;-60
2021/01/04 04:38:40;;;;;;;4.53;3.73;;;19.00;29.60;;;;;;8356100;28;20033;-60
2021/01/04 04:42:41;;;;;;;6.00;4.10;;;19.10;29.50;;;;;;8350097;28;20487;-60
2021/01/04 04:46:49;;;;;;;6.70;4.60;;;19.10;29.50;;;;;;8349264;28;20040;-59
2021/01/04 04:51:23;;;;;;;6.22;4.03;;;19.10;29.40;;;;;;8330415;28;20042;-60
2021/01/04 04:55:58;;;;;;;5.47;3.97;;;19.10;29.40;;;;;;8332989;28;20041;-59
2021/01/04 05:00:28;;;;;;;5.05;4.22;;;19.20;29.40;;;;;;8360834;28;20029;-58
2021/01/04 05:04:39;;;;;;;5.07;3.55;;;19.20;29.40;;;;;;8343188;28;20178;-59
2021/01/04 05:09:14;;;;;;;6.13;4.22;;;19.20;29.40;;;;;;8354255;28;20123;-59
2021/01/04 05:13:26;;;;;;;4.78;4.28;;;19.20;29.40;;;;;;8356168;28;20048;-58
2021/01/04 05:17:40;;;;;;;5.80;4.60;;;19.30;29.40;;;;;;8359106;28;20049;-59
2021/01/04 05:22:10;;;;;;;5.78;4.03;;;19.30;29.30;;;;;;8365699;28;20029;-59
2021/01/04 05:26:36;;;;;;;4.68;3.85;;;19.30;29.30;;;;;;8308067;28;20042;-59
2021/01/04 05:30:46;;;;;;;5.43;3.85;;;19.30;29.30;;;;;;8322427;28;20038;-59
2021/01/04 05:34:55;;;;;;;5.82;4.22;;;19.30;29.70;;;;;;8348661;28;20395;-60
2021/01/04 05:39:15;;;;;;;5.32;4.25;;;19.30;29.30;;;;;;8328327;28;20041;-60
2021/01/04 05:43:23;;;;;;;5.10;3.90;;;19.40;29.40;;;;;;8327415;28;20187;-60
2021/01/04 05:47:32;;;;;;;5.28;4.20;;;19.40;29.30;;;;;;8329861;28;20083;-59
2021/01/04 05:51:43;;;;;;;4.90;4.07;;;19.40;29.30;;;;;;8337877;28;20397;-61
2021/01/04 05:55:43;;;;;;;5.82;4.07;;;19.40;29.40;;;;;;8339026;28;20056;-60
2021/01/04 05:59:56;;;;;;;6.83;4.20;;;19.40;29.30;;;;;;8324816;28;20045;-60
2021/01/04 06:04:02;;;;;;;5.10;3.85;;;19.40;29.30;;;;;;8326822;28;20440;-60
2021/01/04 06:08:04;;;;;;;5.43;4.00;;;19.40;29.30;;;;;;8330897;28;20461;-60
2021/01/04 06:12:18;;;;;;;4.90;3.65;;;19.40;29.30;;;;;;8324726;28;20037;-60
2021/01/04 06:16:26;;;;;;;5.35;3.75;;;19.40;29.30;;;;;;8326150;28;20455;-58
2021/01/04 06:20:43;;;;;;;5.50;4.20;;;19.40;29.30;;;;;;8324484;28;20068;-59
2021/01/04 06:24:45;;;;;;;5.93;4.18;;;19.50;29.30;;;;;;8325850;28;20546;-60
2021/01/04 06:28:57;;;;;;;5.03;3.75;;;19.50;29.30;;;;;;8330442;28;20059;-59
2021/01/04 06:33:15;;;;;;;6.40;4.65;;;19.50;29.30;;;;;;8330028;28;20029;-58
2021/01/04 06:37:21;;;;;;;4.35;3.80;;;19.50;29.30;;;;;;8341932;28;20041;-58
2021/01/04 06:41:31;;;;;;;5.53;4.07;;;19.50;29.30;;;;;;8349573;28;20393;-58
2021/01/04 06:46:00;;;;;;;4.95;4.40;;;19.50;29.30;;;;;;8358068;28;20036;-58
2021/01/04 06:50:31;;;;;;;6.97;4.40;;;19.50;29.30;;;;;;8362299;28;20474;-58
2021/01/04 06:54:37;;;;;;;6.27;4.47;;;19.50;29.30;;;;;;8312414;28;20099;-60
2021/01/04 06:58:40;;;;;;;5.90;4.70;;;19.50;29.30;;;;;;8350894;28;20033;-59
2021/01/04 07:02:56;;;;;;;5.93;4.60;;;19.50;29.30;;;;;;8327968;28;20087;-59
2021/01/04 07:07:29;;;;;;;5.55;4.25;;;19.60;29.30;;;;;;8338802;28;20033;-58
2021/01/04 07:11:50;;;;;;;6.90;4.82;;;19.60;29.30;;;;;;8353678;28;20071;-59
2021/01/04 07:16:11;;;;;;;6.32;4.88;;;19.60;29.30;;;;;;8329234;28;20041;-59
2021/01/04 07:20:21;;;;;;;6.50;4.60;;;19.60;29.30;;;;;;8324722;28;20033;-58
2021/01/04 07:24:49;;;;;;;7.25;4.97;;;19.60;29.30;;;;;;8332520;28;20037;-60
2021/01/04 07:29:06;;;;;;;6.32;4.78;;;19.60;29.30;;;;;;8356769;28;20039;-59
2021/01/04 07:33:25;;;;;;;6.95;4.70;;;19.60;29.30;;;;;;8323045;28;20037;-59
2021/01/04 07:37:37;;;;;;;6.82;4.95;;;19.60;29.30;;;;;;8324081;28;20125;-59
2021/01/04 07:41:45;;;;;;;6.07;4.50;;;19.60;29.30;;;;;;8330449;28;20036;-59
2021/01/04 07:46:09;;;;;;;5.60;4.47;;;19.60;29.30;;;;;;8344135;28;20037;-59
2021/01/04 07:50:37;;;;;;;6.20;4.53;;;19.60;29.30;;;;;;8323726;28;20437;-59
2021/01/04 07:55:05;;;;;;;7.65;4.80;;;19.60;29.30;;;;;;8333932;28;20051;-59
2021/01/04 07:59:29;;;;;;;6.03;4.72;;;19.60;29.30;;;;;;8333295;28;20061;-58
2021/01/04 08:03:38;;;;;;;7.32;4.63;;;19.60;29.30;;;;;;8333121;28;20045;-59
2021/01/04 08:08:06;;;;;;;6.40;4.50;;;19.60;29.30;;;;;;8341012;28;20124;-59
2021/01/04 08:12:29;;;;;;;4.75;4.07;;;19.60;29.20;;;;;;8322224;28;20039;-59
2021/01/04 08:16:35;;;;;;;6.57;4.82;;;19.70;29.30;;;;;;8323416;28;20088;-58
2021/01/04 08:20:41;;;;;;;5.68;4.57;;;19.60;29.20;;;;;;8321787;28;20362;-58
2021/01/04 08:24:48;;;;;;;8.20;5.00;;;19.70;29.20;;;;;;8323234;28;20029;-59
2021/01/04 08:29:03;;;;;;;6.40;4.60;;;19.70;29.30;;;;;;8327859;28;20036;-59
2021/01/04 08:33:18;;;;;;;6.20;4.80;;;19.70;29.20;;;;;;8321549;28;20498;-59
2021/01/04 08:37:41;;;;;;;6.85;5.13;;;19.70;29.20;;;;;;8323217;28;20057;-59
2021/01/04 08:41:43;;;;;;;6.05;4.75;;;19.70;29.20;;;;;;8346478;28;20044;-60
2021/01/04 08:45:45;;;;;;;6.03;4.35;;;19.70;29.20;;;;;;8328918;28;20442;-59
2021/01/04 08:49:47;;;;;;;7.07;4.80;;;19.70;29.20;;;;;;8333198;28;20037;-60
2021/01/04 08:54:16;;;;;;;6.65;4.70;;;19.70;29.20;;;;;;8331808;28;20425;-60
2021/01/04 08:58:42;;;;;;;5.88;4.43;;;19.70;29.20;;;;;;8361412;28;20044;-58
2021/01/04 09:02:43;;;;;;;7.18;5.22;;;19.80;29.20;;;;;;8331357;28;20494;-59
2021/01/04 09:06:52;;;;;;;7.87;5.60;;;19.70;29.20;;;;;;8328154;28;20056;-58
2021/01/04 09:11:00;;;;;;;6.95;4.75;;;19.70;29.20;;;;;;8327584;28;20053;-59
2021/01/04 09:15:24;;;;;;;7.68;4.82;;;19.80;29.30;;;;;;8337134;28;20111;-58
2021/01/04 09:19:33;;;;;;;6.15;4.80;;;19.70;29.20;;;;;;8361163;28;20033;-59
2021/01/04 09:23:40;;;;;;;8.05;5.25;;;19.70;29.20;;;;;;8359872;28;20037;-59
2021/01/04 09:27:42;;;;;;;6.90;4.85;;;19.80;29.20;;;;;;8360518;28;20029;-59
2021/01/04 09:31:50;;;;;;;7.40;5.05;;;19.80;29.20;;;;;;8339683;28;20397;-60
2021/01/04 09:36:03;;;;;;;6.75;5.68;;;19.80;29.20;;;;;;8335367;28;20045;-60
2021/01/04 09:40:09;;;;;;;5.80;4.43;;;19.80;29.20;;;;;;8360419;28;20037;-59
2021/01/04 09:44:13;;;;;;;6.47;5.22;;;19.80;29.20;;;;;;8360207;28;20033;-60
2021/01/04 09:48:27;;;;;;;6.15;5.13;;;19.80;29.20;;;;;;8358707;28;20036;-59
2021/01/04 09:52:42;;;;;;;6.55;4.60;;;19.80;29.20;;;;;;8342290;28;20052;-59
2021/01/04 09:56:43;;;;;;;8.25;5.00;;;19.80;29.20;;;;;;8353881;28;20149;-59
2021/01/04 10:00:45;;;;;;;7.57;4.93;;;19.80;29.30;;;;;;8324904;28;20045;-59
2021/01/04 10:04:45;;;;;;;;;;;19.80;29.50;;;;;;8322015;28;20112;-59
2021/01/04 10:08:46;;;;;;;9.73;4.73;;;19.80;29.50;;;;;;8319298;28;20685;-59
2021/01/04 10:12:47;;;;;;;7.25;5.32;;;19.80;29.70;;;;;;8331778;28;20029;-59
2021/01/04 10:16:53;;;;;;;7.73;5.47;;;19.90;29.70;;;;;;8331770;28;20054;-59
2021/01/04 10:20:54;;;;;;;6.40;5.10;;;19.90;29.70;;;;;;8346102;28;20079;-59
2021/01/04 10:25:00;;;;;;;7.20;5.27;;;20.00;29.70;;;;;;8348298;28;20460;-58
2021/01/04 10:29:04;;;;;;;8.38;4.85;;;20.10;29.80;;;;;;8352727;28;20064;-58
2021/01/04 10:33:26;;;;;;;7.63;4.88;;;20.10;29.80;;;;;;8348483;28;20095;-58
2021/01/04 10:37:51;;;;;;;6.32;5.03;;;20.20;29.80;;;;;;8337639;28;20449;-58
2021/01/04 10:42:16;;;;;;;7.75;5.15;;;20.20;29.70;;;;;;8343714;28;20044;-59
2021/01/04 10:46:27;;;;;;;6.90;5.18;;;20.30;29.70;;;;;;8308737;28;20033;-58
2021/01/04 10:50:39;;;;;;;8.15;5.50;;;20.30;29.70;;;;;;8317203;28;20041;-58
2021/01/04 10:54:43;;;;;;;7.80;5.32;;;20.30;29.70;;;;;;8310899;28;20041;-57
2021/01/04 10:58:46;;;;;;;9.57;5.47;;;20.40;29.80;;;;;;8340064;28;20394;-59
2021/01/04 11:02:49;;;;;;;9.02;5.18;;;20.40;29.90;;;;;;8321631;28;20042;-58
2021/01/04 11:07:12;;;;;;;8.90;5.28;;;20.40;30.20;;;;;;8317804;28;20029;-58
2021/01/04 11:11:35;;;;;;;8.65;5.50;;;20.50;29.90;;;;;;8319949;28;20033;-58
2021/01/04 11:15:36;;;;;;;7.57;4.70;;;20.50;29.90;;;;;;8331303;28;20060;-58
2021/01/04 11:19:37;;;;;;;6.82;4.43;;;20.60;29.80;;;;;;8343594;28;20032;-57
2021/01/04 11:23:38;;;;;;;7.20;5.20;;;20.60;29.80;;;;;;8351437;28;20037;-58
2021/01/04 11:27:39;;;;;;;13.73;8.83;;;20.60;29.80;;;;;;8318664;28;20088;-55
2021/01/04 11:31:39;;;;;;;23.77;13.40;;;20.50;28.10;;;;;;8317014;28;20046;-53
2021/01/04 11:35:40;;;;;;;21.15;12.55;;;19.70;26.20;;;;;;8320224;28;20049;-53
2021/01/04 11:39:41;;;;;;;19.13;11.07;;;19.00;26.40;;;;;;8316442;28;20041;-59
2021/01/04 11:43:42;;;;;;;15.95;9.13;;;18.40;26.80;;;;;;8316674;28;20041;-59
2021/01/04 11:47:46;;;;;;;15.75;8.43;;;18.40;28.80;;;;;;8309252;28;20034;-59
2021/01/04 11:51:50;;;;;;;13.63;8.52;;;18.70;28.80;;;;;;8313546;28;20049;-59
2021/01/04 11:55:50;;;;;;;13.73;7.72;;;19.10;28.50;;;;;;8326547;28;20116;-58
2021/01/04 11:59:51;;;;;;;10.27;7.20;;;19.40;28.30;;;;;;8345930;28;20088;-59
2021/01/04 12:03:52;;;;;;;12.07;7.40;;;19.50;28.30;;;;;;8341388;28;20052;-60
2021/01/04 12:07:54;;;;;;;15.02;9.35;;;19.70;28.30;;;;;;8344085;28;20037;-58
2021/01/04 12:11:54;;;;;;;16.40;9.35;;;19.60;26.90;;;;;;8328468;28;20410;-55
2021/01/04 12:15:55;;;;;;;14.77;9.27;;;18.90;25.30;;;;;;8337341;28;20049;-58
2021/01/04 12:19:55;;;;;;;16.03;8.47;;;18.20;25.50;;;;;;8324111;28;20044;-57
2021/01/04 12:23:56;;;;;;;12.33;7.27;;;17.90;28.00;;;;;;8321796;28;20037;-58
2021/01/04 12:27:56;;;;;;;21.77;7.70;;;18.30;28.00;;;;;;8342290;28;20033;-58
2021/01/04 12:31:57;;;;;;;14.87;7.43;;;18.70;27.90;;;;;;8356547;28;20525;-60
2021/01/04 12:35:58;;;;;;;13.97;6.90;;;19.00;27.80;;;;;;8323514;28;20510;-58
2021/01/04 12:39:58;;;;;;;13.60;6.47;;;19.20;28.00;;;;;;8337919;28;20041;-59
2021/01/04 12:43:59;;;;;;;14.67;7.67;;;19.40;27.70;;;;;;8336559;28;20036;-58
2021/01/04 12:47:59;;;;;;;12.70;6.23;;;19.60;27.60;;;;;;8347633;28;20586;-59
2021/01/04 12:52:00;;;;;;;9.40;5.70;;;19.80;27.60;;;;;;8323057;28;20137;-59
2021/01/04 12:56:01;;;;;;;9.90;5.25;;;19.90;27.50;;;;;;8318919;28;20042;-59
2021/01/04 13:00:04;;;;;;;8.73;5.73;;;20.10;27.50;;;;;;8305868;28;20041;-58
2021/01/04 13:04:05;;;;;;;12.80;5.47;;;20.10;27.50;;;;;;8326996;28;20042;-59
2021/01/04 13:08:06;;;;;;;10.65;5.97;;;20.20;27.60;;;;;;8322746;28;20445;-60
2021/01/04 13:12:07;;;;;;;10.13;5.83;;;20.20;27.60;;;;;;8320479;28;20088;-60
2021/01/04 13:16:09;;;;;;;17.35;6.85;;;20.30;27.70;;;;;;8322689;28;20099;-55
2021/01/04 13:20:10;;;;;;;16.20;9.35;;;20.10;26.50;;;;;;8326682;28;20045;-55
2021/01/04 13:24:14;;;;;;;13.65;7.30;;;19.30;24.80;;;;;;8320221;28;20041;-60
2021/01/04 13:28:15;;;;;;;9.70;6.32;;;18.60;26.10;;;;;;8320794;28;20430;-58
2021/01/04 13:32:15;;;;;;;10.93;5.97;;;18.70;27.40;;;;;;8346118;28;20120;-58
2021/01/04 13:36:17;;;;;;;10.27;5.13;;;19.00;27.30;;;;;;8346311;28;20140;-59
2021/01/04 13:40:17;;;;;;;8.93;5.57;;;19.40;27.10;;;;;;8326016;28;20048;-60
2021/01/04 13:44:19;;;;;;;8.90;5.23;;;19.60;27.00;;;;;;8345222;28;20502;-59
2021/01/04 13:48:20;;;;;;;7.32;4.78;;;19.80;27.00;;;;;;8354365;28;20671;-59
2021/01/04 13:52:23;;;;;;;9.07;5.23;;;19.80;27.00;;;;;;8353721;28;20025;-61
2021/01/04 13:56:23;;;;;;;8.10;5.15;;;19.90;27.10;;;;;;8330593;28;20049;-59
2021/01/04 14:00:24;;;;;;;6.43;4.40;;;19.90;27.20;;;;;;8330584;28;20036;-60
2021/01/04 14:04:25;;;;;;;8.20;4.32;;;20.00;27.40;;;;;;8314395;28;20515;-60
2021/01/04 14:08:25;;;;;;;10.03;4.57;;;20.00;27.50;;;;;;8338411;28;20508;-60
2021/01/04 14:12:26;;;;;;;7.30;4.77;;;20.00;27.80;;;;;;8332376;28;20489;-59
2021/01/04 14:16:27;;;;;;;10.43;4.23;;;20.10;27.80;;;;;;8337566;28;20159;-61
2021/01/04 14:20:27;;;;;;;10.97;4.27;;;20.10;27.90;;;;;;8318883;28;20057;-60
2021/01/04 14:24:28;;;;;;;7.27;4.77;;;20.20;28.00;;;;;;8318381;28;20038;-59
2021/01/04 14:28:29;;;;;;;8.25;4.25;;;20.20;28.00;;;;;;8311433;28;20083;-60
2021/01/04 14:32:29;;;;;;;9.20;3.90;;;20.30;28.20;;;;;;8313829;28;20029;-61
2021/01/04 14:36:30;;;;;;;8.73;3.97;;;20.30;28.20;;;;;;8319773;28;20126;-61
2021/01/04 14:40:30;;;;;;;8.00;4.13;;;20.40;28.20;;;;;;8319289;28;20040;-61
2021/01/04 14:44:31;;;;;;;7.47;4.10;;;20.40;28.20;;;;;;8341851;28;20275;-60
2021/01/04 14:48:31;;;;;;;5.00;3.30;;;20.50;28.30;;;;;;8324114;28;20029;-60
2021/01/04 14:52:32;;;;;;;5.53;3.77;;;20.50;28.40;;;;;;8320084;28;20056;-59
2021/01/04 14:56:32;;;;;;;6.10;3.40;;;20.50;28.40;;;;;;8317337;28;20049;-59
2021/01/04 15:00:33;;;;;;;5.60;3.80;;;20.60;28.50;;;;;;8318796;28;20394;-59
2021/01/04 15:04:34;;;;;;;5.97;3.83;;;20.60;28.50;;;;;;8327851;28;20052;-60
2021/01/04 15:08:37;;;;;;;4.83;3.27;;;20.60;28.60;;;;;;8339632;28;20486;-58
2021/01/04 15:12:37;;;;;;;10.43;3.55;;;20.60;28.50;;;;;;8325136;28;20041;-57
2021/01/04 15:16:43;;;;;;;10.30;3.67;;;20.60;28.50;;;;;;8317102;28;20183;-59
2021/01/04 15:20:44;;;;;;;6.43;3.67;;;20.70;28.40;;;;;;8315909;28;20030;-60
2021/01/04 15:24:48;;;;;;;7.07;3.90;;;20.80;28.50;;;;;;8324301;28;20037;-60
2021/01/04 15:28:48;;;;;;;5.35;3.72;;;20.80;28.70;;;;;;8318610;28;20769;-61
2021/01/04 15:32:49;;;;;;;4.27;3.23;;;20.90;28.80;;;;;;8336738;28;20061;-60
2021/01/04 15:36:56;;;;;;;7.73;3.93;;;20.90;28.70;;;;;;8301131;28;20054;-62
2021/01/04 15:40:57;;;;;;;9.75;3.70;;;20.90;28.70;;;;;;8318701;28;20124;-61
2021/01/04 15:44:57;;;;;;;8.73;4.83;;;20.90;28.70;;;;;;8309677;28;20552;-61
2021/01/04 15:48:58;;;;;;;16.07;7.53;;;20.90;28.70;;;;;;8338717;28;20036;-61
2021/01/04 15:52:58;;;;;;;17.20;5.93;;;20.70;26.90;;;;;;8329880;28;20117;-59
2021/01/04 15:56:59;;;;;;;12.47;5.67;;;20.40;28.40;;;;;;8322862;28;20053;-60
2021/01/04 16:00:59;;;;;;;12.07;5.23;;;20.40;28.40;;;;;;8328686;28;20045;-59
2021/01/04 16:05:00;;;;;;;13.23;5.23;;;20.50;28.20;;;;;;8324860;28;20045;-62
2021/01/04 16:09:02;;;;;;;14.20;4.90;;;20.60;28.30;;;;;;8322158;28;20548;-61
2021/01/04 16:13:07;;;;;;;19.25;5.30;;;20.70;28.20;;;;;;8323893;28;20045;-60
2021/01/04 16:17:09;;;;;;;10.98;5.32;;;20.80;28.30;;;;;;8328348;28;20132;-60
2021/01/04 16:21:10;;;;;;;12.00;5.28;;;20.90;28.30;;;;;;8329990;28;20033;-60
2021/01/04 16:25:15;;;;;;;10.73;4.57;;;20.90;28.30;;;;;;8357851;28;20416;-60
2021/01/04 16:29:15;;;;;;;11.05;5.30;;;20.90;28.30;;;;;;8354923;28;20033;-59
2021/01/04 16:33:16;;;;;;;9.00;4.17;;;21.00;28.40;;;;;;8364548;28;20102;-58
2021/01/04 16:37:19;;;;;;;8.57;4.43;;;21.00;28.40;;;;;;8355638;28;20285;-59
2021/01/04 16:41:25;;;;;;;13.23;4.47;;;21.00;28.40;;;;;;8312485;28;20475;-60
2021/01/04 16:45:26;;;;;;;7.72;4.32;;;21.00;28.50;;;;;;8345225;28;20041;-59
2021/01/04 16:49:28;;;;;;;10.37;4.43;;;21.10;28.60;;;;;;8344767;28;20071;-59
2021/01/04 16:53:29;;;;;;;17.38;5.13;;;21.10;28.60;;;;;;8331424;28;20441;-57
2021/01/04 16:57:29;;;;;;;13.90;5.00;;;21.10;28.70;;;;;;8323294;28;20037;-60
2021/01/04 17:01:36;;;;;;;8.47;5.13;;;21.10;28.90;;;;;;8322058;28;20041;-60
2021/01/04 17:05:36;;;;;;;15.75;4.82;;;21.20;28.90;;;;;;8319872;28;20033;-59
2021/01/04 17:09:38;;;;;;;13.50;4.80;;;21.20;28.90;;;;;;8327160;28;20025;-60
2021/01/04 17:13:40;;;;;;;;;;;21.20;28.90;;;;;;8360066;28;20029;-59
2021/01/04 17:17:41;;;;;;;13.13;4.65;;;21.20;28.90;;;;;;8324477;28;19932;-61
2021/01/04 17:21:50;;;;;;;14.40;4.97;;;21.20;28.90;;;;;;8321261;28;20041;-58
2021/01/04 17:25:51;;;;;;;15.45;4.97;;;21.30;28.90;;;;;;8321495;28;20101;-58
2021/01/04 17:29:51;;;;;;;19.40;4.57;;;21.30;28.90;;;;;;8329491;28;20167;-59
2021/01/04 17:33:52;;;;;;;11.70;4.72;;;21.30;29.00;;;;;;8354289;28;20068;-59
2021/01/04 17:37:53;;;;;;;9.95;3.88;;;21.30;29.00;;;;;;8331910;28;20056;-58
2021/01/04 17:41:59;;;;;;;12.07;5.07;;;21.40;29.00;;;;;;8319807;28;20037;-57
2021/01/04 17:46:00;;;;;;;13.55;6.25;;;21.40;28.90;;;;;;8338819;28;20041;-60
2021/01/04 17:50:01;;;;;;;13.80;6.07;;;21.00;27.70;;;;;;8362019;28;20074;-60
2021/01/04 17:54:02;;;;;;;12.10;5.53;;;20.70;28.60;;;;;;8374043;28;20504;-58
2021/01/04 17:58:03;;;;;;;19.00;10.43;;;20.80;28.60;;;;;;8366944;28;20123;-59
2021/01/04 18:02:04;;;;;;;;;;;20.40;26.20;;;;;;8337372;28;20045;-59
2021/01/04 18:06:04;;;;;;;13.97;6.53;;;20.40;27.80;;;;;;8336805;28;19916;-59
2021/01/04 18:10:06;;;;;;;14.23;7.33;;;20.40;28.10;;;;;;8359674;28;20037;-59
2021/01/04 18:14:08;;;;;;;9.43;5.65;;;20.50;27.70;;;;;;8358869;28;20391;-59
2021/01/04 18:18:08;;;;;;;13.85;6.00;;;20.60;27.60;;;;;;8357625;28;20482;-60
2021/01/04 18:22:09;;;;;;;13.07;6.00;;;20.70;27.50;;;;;;8360598;28;20041;-59
2021/01/04 18:26:12;;;;;;;9.33;5.47;;;20.70;27.80;;;;;;8330636;28;20276;-59
2021/01/04 18:30:13;;;;;;;9.00;5.82;;;20.70;27.50;;;;;;8316118;28;20033;-59
2021/01/04 18:34:14;;;;;;;9.18;5.22;;;20.80;27.60;;;;;;8326710;28;20041;-59
2021/01/04 18:38:14;;;;;;;10.60;5.32;;;20.80;27.60;;;;;;8348972;28;20128;-56
2021/01/04 18:42:16;;;;;;;8.60;5.80;;;20.80;27.70;;;;;;8355471;28;20036;-59
2021/01/04 18:46:23;;;;;;;9.15;5.65;;;20.70;27.70;;;;;;8326076;28;20037;-59
2021/01/04 18:50:23;;;;;;;7.40;5.35;;;20.80;27.70;;;;;;8350326;28;20037;-59
2021/01/04 18:54:24;;;;;;;9.87;5.33;;;20.70;27.70;;;;;;8358677;28;20053;-59
2021/01/04 18:58:25;;;;;;;8.57;5.20;;;20.80;27.70;;;;;;8345234;28;20385;-59
2021/01/04 19:02:25;;;;;;;10.33;5.07;;;20.80;27.70;;;;;;8324483;28;20040;-59
2021/01/04 19:06:31;;;;;;;8.07;5.60;;;20.70;27.70;;;;;;8325670;28;20087;-59
2021/01/04 19:10:32;;;;;;;7.68;4.93;;;20.70;27.70;;;;;;8325437;28;20198;-59
2021/01/04 19:14:33;;;;;;;8.63;4.97;;;20.80;27.80;;;;;;8323699;28;20042;-59
2021/01/04 19:18:34;;;;;;;;;;;20.80;27.80;;;;;;8330221;28;20061;-59
2021/01/04 19:22:38;;;;;;;8.20;5.00;;;20.70;27.80;;;;;;8325196;28;19913;-58
2021/01/04 19:26:39;;;;;;;6.07;4.70;;;20.70;27.80;;;;;;8347242;28;20132;-59
2021/01/04 19:30:39;;;;;;;7.82;4.50;;;20.70;27.90;;;;;;8336851;28;20025;-58
2021/01/04 19:34:40;;;;;;;7.27;4.80;;;20.70;27.80;;;;;;8342077;28;20041;-59
2021/01/04 19:38:42;;;;;;;10.05;4.55;;;20.70;27.90;;;;;;8323447;28;20070;-59
2021/01/04 19:42:42;;;;;;;7.50;4.68;;;20.70;27.90;;;;;;8324999;28;20034;-59
2021/01/04 19:46:47;;;;;;;8.97;5.20;;;20.70;27.90;;;;;;8324512;28;20187;-59
2021/01/04 19:50:47;;;;;;;7.40;4.60;;;20.70;27.80;;;;;;8323043;28;20170;-59
2021/01/04 19:54:48;;;;;;;7.03;4.40;;;20.70;27.80;;;;;;8329062;28;20129;-59
2021/01/04 19:58:50;;;;;;;11.47;4.87;;;20.70;27.90;;;;;;8324646;28;20038;-60
2021/01/04 20:02:50;;;;;;;8.18;5.00;;;20.70;27.90;;;;;;8322895;28;20513;-60
2021/01/04 20:06:52;;;;;;;6.80;4.50;;;20.70;27.90;;;;;;8337940;28;20033;-59
2021/01/04 20:10:53;;;;;;;;;;;20.70;27.90;;;;;;8340565;28;20034;-59
2021/01/04 20:14:53;;;;;;;8.00;4.67;;;20.70;27.90;;;;;;8327610;28;19932;-60
2021/01/04 20:18:55;;;;;;;6.50;4.70;;;20.60;27.90;;;;;;8357133;28;20033;-60
2021/01/04 20:22:55;;;;;;;8.25;5.00;;;20.60;27.90;;;;;;8334803;28;20187;-60
2021/01/04 20:26:59;;;;;;;7.57;4.50;;;20.70;27.90;;;;;;8329259;28;20098;-59
2021/01/04 20:31:00;;;;;;;8.93;5.03;;;20.60;27.90;;;;;;8346843;28;20036;-59
2021/01/04 20:35:00;;;;;;;6.00;4.43;;;20.60;27.90;;;;;;8323892;28;20049;-59
2021/01/04 20:39:04;;;;;;;9.37;4.93;;;20.60;27.90;;;;;;8326225;28;20145;-59
2021/01/04 20:43:04;;;;;;;8.35;4.88;;;20.60;28.00;;;;;;8329669;28;20033;-59
2021/01/04 20:47:05;;;;;;;6.83;4.67;;;20.60;27.90;;;;;;8334008;28;20033;-60
2021/01/04 20:51:07;;;;;;;6.63;5.23;;;20.60;27.90;;;;;;8359707;28;20033;-60
2021/01/04 20:55:08;;;;;;;7.43;4.75;;;20.60;27.90;;;;;;8346857;28;20807;-60
2021/01/04 20:59:09;;;;;;;7.22;4.60;;;20.60;27.90;;;;;;8329268;28;20444;-60
2021/01/04 21:03:10;;;;;;;6.45;4.65;;;20.60;27.90;;;;;;8331998;28;20045;-60
2021/01/04 21:07:10;;;;;;;6.55;4.32;;;20.60;27.90;;;;;;8329209;28;20368;-60
2021/01/04 21:11:11;;;;;;;7.00;4.53;;;20.60;28.00;;;;;;8353756;28;20115;-60
2021/01/04 21:15:15;;;;;;;7.87;4.80;;;20.60;28.00;;;;;;8352255;28;20411;-60
2021/01/04 21:19:17;;;;;;;6.38;4.32;;;20.60;27.90;;;;;;8328668;28;20435;-59
2021/01/04 21:23:18;;;;;;;7.35;4.38;;;20.50;27.90;;;;;;8331684;28;20041;-60